Time;durP1;ratioP1;P1;durP2;ratioP2;P2;SDS_P1;SDS_P2;PMS_P1;PMS_P2;Temp;Humidity;BMP_temperature;BMP_pressure;BME280_temperature;BME280_humidity;BME280_pressure;Samples;Min_cycle;Max_cycle;Signal;HPM_P1;HPM_P2
2023/05/18 00:00:15;;;;;;;;;;;;;;;16.47;100.00;99140.04;109567;1252;61527;-69
2023/05/18 00:02:42;;;;;;;;;;;;;;;16.43;100.00;99144.52;109007;1254;458131;-67
2023/05/18 00:05:09;;;;;;;;;;;;;;;16.40;100.00;99140.70;109570;1252;59189;-66
2023/05/18 00:07:36;;;;;;;;;;;;;;;16.37;100.00;99139.06;109512;1251;71088;-65
2023/05/18 00:10:03;;;;;;;;;;;;;;;16.34;100.00;99138.75;109547;1252;60572;-65
2023/05/18 00:12:29;;;;;;;;;;;;;;;16.33;100.00;99140.06;109563;1251;61707;-63
2023/05/18 00:14:56;;;;;;;;;;;;;;;16.31;100.00;99138.23;109574;1252;76010;-69
2023/05/18 00:17:23;;;;;;;;;;;;;;;16.28;100.00;99135.23;109560;1252;68326;-64
2023/05/18 00:19:50;;;;;;;;;;;;;;;16.26;100.00;99134.09;109563;1251;73912;-65
2023/05/18 00:22:17;;;;;;;;;;;;;;;16.23;100.00;99131.42;109512;1252;59096;-65
2023/05/18 00:24:45;;;;;;;;;;;;;;;16.20;100.00;99131.34;109569;1252;61402;-64
2023/05/18 00:27:11;;;;;;;;;;;;;;;16.18;100.00;99126.62;109528;1252;76781;-67
2023/05/18 00:29:38;;;;;;;;;;;;;;;16.17;100.00;99126.73;109560;1252;66853;-65
2023/05/18 00:32:05;;;;;;;;;;;;;;;16.17;100.00;99131.52;109551;1252;72743;-67
2023/05/18 00:34:32;;;;;;;;;;;;;;;16.17;100.00;99131.77;109553;1252;62966;-65
2023/05/18 00:36:58;;;;;;;;;;;;;;;16.16;100.00;99130.67;109528;1252;58885;-67
2023/05/18 00:39:25;;;;;;;;;;;;;;;16.17;100.00;99127.23;109455;1252;75303;-66
2023/05/18 00:41:52;;;;;;;;;;;;;;;16.19;100.00;99123.69;109510;1252;70098;-64
2023/05/18 00:44:18;;;;;;;;;;;;;;;16.19;100.00;99119.84;109401;1255;74062;-64
2023/05/18 00:46:45;;;;;;;;;;;;;;;16.17;100.00;99122.77;109549;1253;64224;-65
2023/05/18 00:49:12;;;;;;;;;;;;;;;16.16;100.00;99118.12;109528;1251;61047;-67
2023/05/18 00:51:38;;;;;;;;;;;;;;;16.14;100.00;99120.31;109366;1252;76730;-68
2023/05/18 00:54:07;;;;;;;;;;;;;;;16.13;100.00;99122.64;109511;1252;68749;-66
2023/05/18 00:56:34;;;;;;;;;;;;;;;16.11;100.00;99119.35;109359;1253;70984;-65
2023/05/18 00:59:01;;;;;;;;;;;;;;;16.12;100.00;99123.23;109319;1254;60342;-63
2023/05/18 01:01:28;;;;;;;;;;;;;;;16.11;100.00;99122.23;109518;1252;61391;-64
2023/05/18 01:03:56;;;;;;;;;;;;;;;16.13;100.00;99123.80;109585;1251;76026;-65
2023/05/18 01:06:26;;;;;;;;;;;;;;;16.14;100.00;99127.17;109525;1252;69123;-65
2023/05/18 01:08:52;;;;;;;;;;;;;;;16.15;100.00;99129.98;109538;1252;74370;-67
2023/05/18 01:11:28;;;;;;;;;;;;;;;16.15;100.00;99128.98;109365;1253;61089;-66
2023/05/18 01:14:02;;;;;;;;;;;;;;;16.17;100.00;99128.55;109399;1253;58866;-65
2023/05/18 01:16:33;;;;;;;;;;;;;;;16.19;100.00;99126.11;109395;1253;74509;-65
2023/05/18 01:19:04;;;;;;;;;;;;;;;16.19;100.00;99129.58;109431;1251;70389;-64
2023/05/18 01:21:45;;;;;;;;;;;;;;;16.19;100.00;99141.35;109611;1252;72937;-66
2023/05/18 01:24:15;;;;;;;;;;;;;;;16.14;100.00;99142.45;109446;1252;61715;-67
2023/05/18 01:26:44;;;;;;;;;;;;;;;16.08;100.00;99148.73;109416;1253;61243;-68
2023/05/18 01:29:11;;;;;;;;;;;;;;;16.01;100.00;99158.14;109555;1252;73361;-63
2023/05/18 01:31:38;;;;;;;;;;;;;;;15.91;100.00;99164.55;109387;1252;70291;-67
2023/05/18 01:34:05;;;;;;;;;;;;;;;15.81;100.00;99163.79;109555;1252;72790;-66
2023/05/18 01:36:32;;;;;;;;;;;;;;;15.73;100.00;99166.08;109496;1253;60179;-64
2023/05/18 01:39:00;;;;;;;;;;;;;;;15.71;100.00;99157.02;109527;1252;62344;-65
2023/05/18 01:41:28;;;;;;;;;;;;;;;15.70;100.00;99153.71;109312;1253;72924;-63
2023/05/18 01:43:55;;;;;;;;;;;;;;;15.71;100.00;99157.22;109553;1251;69250;-65
2023/05/18 01:46:35;;;;;;;;;;;;;;;15.72;100.00;99156.52;109387;1253;74670;-64
2023/05/18 01:49:31;;;;;;;;;;;;;;;15.73;100.00;99150.08;109537;1252;62650;-63
2023/05/18 01:52:03;;;;;;;;;;;;;;;15.73;100.00;99157.09;109429;1252;61351;-62
2023/05/18 01:54:30;;;;;;;;;;;;;;;15.74;100.00;99158.66;109599;1252;73352;-66
2023/05/18 01:56:57;;;;;;;;;;;;;;;15.76;100.00;99165.16;109397;1252;66235;-66
2023/05/18 01:59:24;;;;;;;;;;;;;;;15.77;100.00;99162.67;109499;1253;72160;-64
2023/05/18 02:01:51;;;;;;;;;;;;;;;15.78;100.00;99160.86;109366;1252;61742;-63
2023/05/18 02:04:25;;;;;;;;;;;;;;;15.79;100.00;99163.71;109407;1253;59998;-67
2023/05/18 02:06:53;;;;;;;;;;;;;;;15.81;100.00;99162.89;109366;1252;76150;-62
2023/05/18 02:09:20;;;;;;;;;;;;;;;15.83;100.00;99166.59;109567;1253;68035;-65
2023/05/18 02:11:47;;;;;;;;;;;;;;;15.83;100.00;99165.60;109451;1252;71425;-65
2023/05/18 02:14:15;;;;;;;;;;;;;;;15.83;100.00;99167.42;109359;1254;60632;-62
2023/05/18 02:16:46;;;;;;;;;;;;;;;15.81;100.00;99161.65;109541;1252;59510;-64
2023/05/18 02:19:13;;;;;;;;;;;;;;;15.80;100.00;99162.32;109468;1252;76517;-64
2023/05/18 02:21:42;;;;;;;;;;;;;;;15.77;100.00;99163.60;109507;1252;69435;-66
2023/05/18 02:24:09;;;;;;;;;;;;;;;15.76;100.00;99169.02;109550;1251;74848;-67
2023/05/18 02:26:36;;;;;;;;;;;;;;;15.74;100.00;99167.08;109544;1253;62116;-66
2023/05/18 02:29:05;;;;;;;;;;;;;;;15.75;100.00;99165.58;109417;1252;60245;-66
2023/05/18 02:31:31;;;;;;;;;;;;;;;15.75;100.00;99164.80;109549;1252;75568;-65
2023/05/18 02:34:00;;;;;;;;;;;;;;;15.74;100.00;99166.86;109581;1252;69267;-63
2023/05/18 02:36:27;;;;;;;;;;;;;;;15.72;100.00;99175.45;109593;1253;74002;-64
2023/05/18 02:38:53;;;;;;;;;;;;;;;15.67;100.00;99183.80;109554;1252;60593;-61
2023/05/18 02:41:21;;;;;;;;;;;;;;;15.61;100.00;99175.23;109530;1252;60225;-63
2023/05/18 02:43:48;;;;;;;;;;;;;;;15.55;100.00;99182.75;109545;1251;74389;-64
2023/05/18 02:46:15;;;;;;;;;;;;;;;15.50;100.00;99185.33;109627;1251;70158;-61
2023/05/18 02:48:44;;;;;;;;;;;;;;;15.45;100.00;99184.67;109501;1253;73394;-62
2023/05/18 02:51:11;;;;;;;;;;;;;;;15.41;100.00;99183.98;109532;1252;60751;-62
2023/05/18 02:53:38;;;;;;;;;;;;;;;15.36;100.00;99182.62;109551;1252;60769;-63
2023/05/18 02:56:07;;;;;;;;;;;;;;;15.36;100.00;99183.24;109566;1252;74600;-66
2023/05/18 02:58:42;;;;;;;;;;;;;;;15.36;100.00;99181.75;109592;1252;68212;-62
2023/05/18 03:01:25;;;;;;;;;;;;;;;15.36;100.00;99179.94;109422;1253;72016;-65
2023/05/18 03:03:53;;;;;;;;;;;;;;;15.36;100.00;99179.86;109444;1252;61145;-62
2023/05/18 03:06:25;;;;;;;;;;;;;;;15.35;100.00;99183.95;109365;1253;61752;-63
2023/05/18 03:08:55;;;;;;;;;;;;;;;15.33;100.00;99190.83;109561;1252;76006;-66
2023/05/18 03:11:28;;;;;;;;;;;;;;;15.31;100.00;99191.52;109427;1252;68006;-64
2023/05/18 03:13:55;;;;;;;;;;;;;;;15.30;100.00;99190.80;109569;1251;72177;-65
2023/05/18 03:16:27;;;;;;;;;;;;;;;15.29;100.00;99193.10;109603;1252;64098;-64
2023/05/18 03:18:57;;;;;;;;;;;;;;;15.27;100.00;99197.84;109550;1251;58892;-65
2023/05/18 03:21:32;;;;;;;;;;;;;;;15.25;100.00;99206.22;109369;1258;75206;-64
2023/05/18 03:23:59;;;;;;;;;;;;;;;15.25;100.00;99203.98;109359;1255;67410;-65
2023/05/18 03:26:29;;;;;;;;;;;;;;;15.28;100.00;99201.14;109523;1253;71548;-63
2023/05/18 03:28:56;;;;;;;;;;;;;;;15.31;100.00;99203.83;109376;1252;62993;-65
2023/05/18 03:31:23;;;;;;;;;;;;;;;15.36;100.00;99208.11;109435;1252;58881;-63
2023/05/18 03:33:50;;;;;;;;;;;;;;;15.41;100.00;99215.61;109554;1252;74276;-66
2023/05/18 03:36:17;;;;;;;;;;;;;;;15.47;100.00;99213.69;109578;1252;68980;-66
2023/05/18 03:38:45;;;;;;;;;;;;;;;15.56;100.00;99211.29;109578;1252;74861;-63
2023/05/18 03:41:12;;;;;;;;;;;;;;;15.66;100.00;99214.20;109497;1252;61430;-66
2023/05/18 03:43:38;;;;;;;;;;;;;;;15.74;100.00;99213.73;109405;1252;58868;-63
2023/05/18 03:46:05;;;;;;;;;;;;;;;15.83;100.00;99219.49;109372;1252;73546;-67
2023/05/18 03:48:32;;;;;;;;;;;;;;;15.92;100.00;99217.73;109439;1253;70289;-67
2023/05/18 03:50:59;;;;;;;;;;;;;;;16.00;100.00;99221.21;109364;1253;70981;-64
2023/05/18 03:53:28;;;;;;;;;;;;;;;16.09;100.00;99228.45;109450;1253;63295;-66
2023/05/18 03:55:55;;;;;;;;;;;;;;;16.16;100.00;99225.20;109368;1255;62153;-64
2023/05/18 03:58:22;;;;;;;;;;;;;;;16.25;100.00;99224.77;109417;1251;76032;-63
2023/05/18 04:00:49;;;;;;;;;;;;;;;16.33;100.00;99228.45;109553;1253;68383;-65
2023/05/18 04:03:15;;;;;;;;;;;;;;;16.44;100.00;99232.65;109491;1253;74618;-65
2023/05/18 04:05:43;;;;;;;;;;;;;;;16.55;100.00;99231.09;109462;1253;59959;-65
2023/05/18 04:08:13;;;;;;;;;;;;;;;16.63;100.00;99231.30;109560;1253;61423;-64
2023/05/18 04:10:41;;;;;;;;;;;;;;;16.74;100.00;99229.11;109519;1257;73313;-65
2023/05/18 04:13:07;;;;;;;;;;;;;;;16.83;100.00;99228.66;109596;1252;68001;-62
2023/05/18 04:15:35;;;;;;;;;;;;;;;16.91;100.00;99230.11;109494;1253;74035;-64
2023/05/18 04:18:02;;;;;;;;;;;;;;;16.96;100.00;99227.06;109344;1254;62559;-62
2023/05/18 04:20:28;;;;;;;;;;;;;;;17.00;100.00;99228.61;109410;1252;60332;-63
2023/05/18 04:22:56;;;;;;;;;;;;;;;17.06;100.00;99226.33;109632;1251;73064;-62
2023/05/18 04:25:26;;;;;;;;;;;;;;;17.12;100.00;99232.77;109384;1253;66612;-66
2023/05/18 04:27:54;;;;;;;;;;;;;;;17.17;100.00;99241.17;109456;1253;73074;-62
2023/05/18 04:30:22;;;;;;;;;;;;;;;17.21;100.00;99245.61;109360;1253;60471;-65
2023/05/18 04:32:49;;;;;;;;;;;;;;;17.25;100.00;99244.83;109389;1252;60198;-64
2023/05/18 04:35:17;;;;;;;;;;;;;;;17.27;100.00;99245.02;109630;1252;74205;-64
2023/05/18 04:37:44;;;;;;;;;;;;;;;17.29;100.00;99247.81;109502;1253;68663;-67
2023/05/18 04:40:17;;;;;;;;;;;;;;;17.33;100.00;99243.52;109367;1253;73991;-66
2023/05/18 04:42:46;;;;;;;;;;;;;;;17.36;100.00;99249.75;109340;1252;62133;-65
2023/05/18 04:45:18;;;;;;;;;;;;;;;17.39;100.00;99254.95;109512;1252;62239;-67
2023/05/18 04:47:45;;;;;;;;;;;;;;;17.42;100.00;99256.86;109573;1252;75464;-64
2023/05/18 04:50:13;;;;;;;;;;;;;;;17.44;100.00;99256.69;109562;1251;68164;-63
2023/05/18 04:52:46;;;;;;;;;;;;;;;17.49;100.00;99262.76;109530;1253;74144;-67
2023/05/18 04:55:24;;;;;;;;;;;;;;;17.55;100.00;99260.17;109267;1253;62663;-66
2023/05/18 04:57:55;;;;;;;;;;;;;;;17.61;100.00;99257.27;109336;1253;58855;-64
2023/05/18 05:00:23;;;;;;;;;;;;;;;17.69;100.00;99261.01;109399;1252;76009;-65
2023/05/18 05:02:50;;;;;;;;;;;;;;;17.75;100.00;99262.84;109397;1252;69212;-65
2023/05/18 05:05:17;;;;;;;;;;;;;;;17.84;100.00;99261.97;109606;1252;75091;-65
2023/05/18 05:07:44;;;;;;;;;;;;;;;17.93;100.00;99259.35;109552;1253;62129;-67
2023/05/18 05:10:11;;;;;;;;;;;;;;;18.04;100.00;99266.08;109592;1252;62009;-67
2023/05/18 05:12:38;;;;;;;;;;;;;;;18.12;100.00;99268.75;109571;1251;76880;-64
2023/05/18 05:15:05;;;;;;;;;;;;;;;18.21;100.00;99271.23;109511;1252;68986;-66
2023/05/18 05:17:31;;;;;;;;;;;;;;;18.28;100.00;99277.58;109575;1252;73678;-68
2023/05/18 05:19:58;;;;;;;;;;;;;;;18.31;100.00;99279.56;109471;1252;59345;-66
2023/05/18 05:22:25;;;;;;;;;;;;;;;18.33;100.00;99278.41;109557;1252;60086;-65
2023/05/18 05:24:52;;;;;;;;;;;;;;;18.36;100.00;99274.65;109554;1252;76463;-63
2023/05/18 05:27:19;;;;;;;;;;;;;;;18.40;100.00;99274.77;109427;1253;69889;-64
2023/05/18 05:29:46;;;;;;;;;;;;;;;18.44;100.00;99279.08;109437;1252;72591;-64
2023/05/18 05:32:12;;;;;;;;;;;;;;;18.47;100.00;99285.94;109374;1253;59183;-63
2023/05/18 05:34:44;;;;;;;;;;;;;;;18.52;100.00;99288.47;109542;1253;61899;-63
2023/05/18 05:37:11;;;;;;;;;;;;;;;18.52;100.00;99287.48;109540;1253;75975;-64
2023/05/18 05:39:38;;;;;;;;;;;;;;;18.51;100.00;99288.45;109580;1252;69310;-67
2023/05/18 05:42:05;;;;;;;;;;;;;;;18.49;100.00;99294.70;109568;1253;74628;-63
2023/05/18 05:44:32;;;;;;;;;;;;;;;18.48;100.00;99294.42;109562;1253;61725;-66
2023/05/18 05:46:58;;;;;;;;;;;;;;;18.49;100.00;99286.63;109408;1253;58954;-64
2023/05/18 05:49:25;;;;;;;;;;;;;;;18.49;100.00;99287.71;109481;1252;76492;-66
2023/05/18 05:51:52;;;;;;;;;;;;;;;18.48;100.00;99288.81;109331;1251;69079;-63
2023/05/18 05:54:19;;;;;;;;;;;;;;;18.51;100.00;99291.79;109362;1253;73144;-67
2023/05/18 05:56:46;;;;;;;;;;;;;;;18.56;100.00;99294.05;109504;1252;60272;-63
2023/05/18 05:59:14;;;;;;;;;;;;;;;18.62;100.00;99294.36;109406;1253;62047;-62
2023/05/18 06:01:41;;;;;;;;;;;;;;;18.65;100.00;99299.70;109374;1253;75213;-66
2023/05/18 06:04:11;;;;;;;;;;;;;;;18.71;100.00;99298.34;109585;1252;68835;-65
2023/05/18 06:06:38;;;;;;;;;;;;;;;18.76;100.00;99301.64;109578;1253;75347;-63
2023/05/18 06:09:05;;;;;;;;;;;;;;;18.83;100.00;99305.11;109360;1255;60711;-65
2023/05/18 06:11:32;;;;;;;;;;;;;;;18.88;100.00;99303.10;109366;1253;60702;-66
2023/05/18 06:13:59;;;;;;;;;;;;;;;18.91;100.00;99309.40;109390;1252;73390;-67
2023/05/18 06:16:26;;;;;;;;;;;;;;;18.94;100.00;99310.97;109405;1253;67923;-64
2023/05/18 06:18:53;;;;;;;;;;;;;;;18.97;100.00;99314.78;109451;1253;73977;-65
2023/05/18 06:21:19;;;;;;;;;;;;;;;18.99;100.00;99319.57;109601;1251;61664;-68
2023/05/18 06:23:46;;;;;;;;;;;;;;;19.04;100.00;99324.14;109439;1253;61491;-66
2023/05/18 06:26:32;;;;;;;;;;;;;;;19.12;100.00;99323.70;109528;1253;76970;-67
2023/05/18 06:29:20;;;;;;;;;;;;;;;19.18;100.00;99330.55;109300;1253;69879;-64
2023/05/18 06:32:07;;;;;;;;;;;;;;;19.17;100.00;99333.54;109485;1253;75373;-68
2023/05/18 06:34:37;;;;;;;;;;;;;;;19.20;100.00;99335.84;109356;1253;63950;-66
2023/05/18 06:37:04;;;;;;;;;;;;;;;19.24;100.00;99341.45;109398;1253;59337;-68
2023/05/18 06:39:31;;;;;;;;;;;;;;;19.25;100.00;99339.73;109586;1253;76695;-69
2023/05/18 06:41:57;;;;;;;;;;;;;;;19.25;100.00;99341.48;109477;1253;68559;-67
2023/05/18 06:44:30;;;;;;;;;;;;;;;19.28;100.00;99345.17;109569;1254;72667;-70
2023/05/18 06:47:23;;;;;;;;;;;;;;;19.31;100.00;99349.99;109292;1253;62816;-67
2023/05/18 06:49:50;;;;;;;;;;;;;;;19.30;100.00;99355.90;109327;1253;59606;-67
2023/05/18 06:52:16;;;;;;;;;;;;;;;19.29;100.00;99363.38;109413;1253;76080;-68
2023/05/18 06:54:44;;;;;;;;;;;;;;;19.31;100.00;99362.14;109539;1252;69977;-66
2023/05/18 06:57:11;;;;;;;;;;;;;;;19.36;100.00;99363.95;109561;1253;73991;-68
2023/05/18 06:59:37;;;;;;;;;;;;;;;19.43;100.00;99364.86;109515;1252;60926;-68
2023/05/18 07:02:05;;;;;;;;;;;;;;;19.50;100.00;99364.42;109443;1252;60948;-66
2023/05/18 07:04:32;;;;;;;;;;;;;;;19.57;100.00;99365.77;109541;1252;76041;-67
2023/05/18 07:06:58;;;;;;;;;;;;;;;19.68;100.00;99366.67;109559;1251;69812;-67
2023/05/18 07:09:25;;;;;;;;;;;;;;;19.81;100.00;99366.95;109602;1253;71161;-69
2023/05/18 07:11:52;;;;;;;;;;;;;;;19.92;100.00;99369.53;109529;1253;59450;-68
2023/05/18 07:14:19;;;;;;;;;;;;;;;20.03;100.00;99371.05;109617;1253;59441;-66
2023/05/18 07:16:46;;;;;;;;;;;;;;;20.13;100.00;99370.21;109600;1252;73408;-67
2023/05/18 07:19:13;;;;;;;;;;;;;;;20.21;100.00;99375.55;109561;1253;68892;-71
2023/05/18 07:21:41;;;;;;;;;;;;;;;20.26;100.00;99378.48;109585;1252;73692;-70
2023/05/18 07:24:07;;;;;;;;;;;;;;;20.29;100.00;99378.48;109631;1256;61440;-68
2023/05/18 07:26:34;;;;;;;;;;;;;;;20.35;100.00;99379.28;109618;1253;61143;-67
2023/05/18 07:29:01;;;;;;;;;;;;;;;20.44;100.00;99380.86;109505;1253;75582;-67
2023/05/18 07:31:27;;;;;;;;;;;;;;;20.55;100.00;99381.65;109613;1253;70139;-68
2023/05/18 07:33:54;;;;;;;;;;;;;;;20.60;100.00;99382.94;109584;1256;72505;-67
2023/05/18 07:36:21;;;;;;;;;;;;;;;20.63;100.00;99383.55;109538;1253;60220;-66
2023/05/18 07:38:53;;;;;;;;;;;;;;;20.67;100.00;99390.94;109559;1252;59956;-68
2023/05/18 07:41:21;;;;;;;;;;;;;;;20.74;100.00;99391.17;109588;1254;73470;-67
2023/05/18 07:43:49;;;;;;;;;;;;;;;20.78;100.00;99396.00;109607;1256;68943;-66
2023/05/18 07:46:16;;;;;;;;;;;;;;;20.88;100.00;99400.85;109571;1252;72675;-67
2023/05/18 07:48:44;;;;;;;;;;;;;;;20.97;100.00;99402.55;109553;1252;62322;-67
2023/05/18 07:51:11;;;;;;;;;;;;;;;21.10;100.00;99402.45;109526;1256;62615;-65
2023/05/18 07:53:38;;;;;;;;;;;;;;;21.30;100.00;99404.70;109627;1253;76499;-68
2023/05/18 07:56:05;;;;;;;;;;;;;;;21.53;100.00;99406.98;109537;1253;70649;-66
2023/05/18 07:58:33;;;;;;;;;;;;;;;21.77;100.00;99408.08;109480;1259;74987;-67
2023/05/18 08:00:59;;;;;;;;;;;;;;;22.01;100.00;99406.57;109478;1253;60524;-65
2023/05/18 08:03:26;;;;;;;;;;;;;;;22.22;100.00;99408.59;109576;1254;61242;-67
2023/05/18 08:05:53;;;;;;;;;;;;;;;22.45;100.00;99414.03;109523;1255;75613;-66
2023/05/18 08:08:20;;;;;;;;;;;;;;;22.66;100.00;99415.38;109502;1252;66951;-69
2023/05/18 08:10:47;;;;;;;;;;;;;;;22.75;100.00;99417.68;109560;1254;71341;-68
2023/05/18 08:13:14;;;;;;;;;;;;;;;22.78;100.00;99424.09;109533;1254;59959;-67
2023/05/18 08:15:40;;;;;;;;;;;;;;;22.82;100.00;99423.70;109561;1255;61462;-67
2023/05/18 08:18:07;;;;;;;;;;;;;;;22.94;100.00;99423.91;109542;1253;75000;-66
2023/05/18 08:20:34;;;;;;;;;;;;;;;23.13;100.00;99427.95;109629;1254;66725;-67
2023/05/18 08:23:00;;;;;;;;;;;;;;;23.31;100.00;99431.31;109554;1254;74514;-66
2023/05/18 08:25:27;;;;;;;;;;;;;;;23.46;100.00;99428.38;109609;1252;62603;-69
2023/05/18 08:27:54;;;;;;;;;;;;;;;23.63;100.00;99428.27;109589;1252;62200;-68
2023/05/18 08:30:21;;;;;;;;;;;;;;;23.69;99.92;99424.98;109538;1253;75537;-68
2023/05/18 08:32:48;;;;;;;;;;;;;;;23.57;99.39;99422.74;109625;1252;69839;-69
2023/05/18 08:35:15;;;;;;;;;;;;;;;23.48;100.00;99427.20;109528;1252;71049;-68
2023/05/18 08:37:41;;;;;;;;;;;;;;;23.44;100.00;99428.41;109523;1253;59105;-71
2023/05/18 08:40:11;;;;;;;;;;;;;;;23.39;100.00;99428.37;109579;1252;60902;-68
2023/05/18 08:42:39;;;;;;;;;;;;;;;23.28;100.00;99430.31;109614;1253;75004;-68
2023/05/18 08:45:18;;;;;;;;;;;;;;;23.15;100.00;99432.27;109595;1252;66856;-71
2023/05/18 08:47:45;;;;;;;;;;;;;;;23.06;100.00;99431.08;109570;1254;74614;-72
2023/05/18 08:50:14;;;;;;;;;;;;;;;23.08;100.00;99437.11;109491;1253;61634;-67
2023/05/18 08:52:41;;;;;;;;;;;;;;;23.02;100.00;99436.82;109597;1253;59699;-66
2023/05/18 08:55:09;;;;;;;;;;;;;;;22.88;100.00;99437.61;109505;1253;75007;-66
2023/05/18 08:57:38;;;;;;;;;;;;;;;22.77;100.00;99440.33;109308;1253;68611;-68
2023/05/18 09:00:05;;;;;;;;;;;;;;;22.68;100.00;99441.02;109522;1254;72979;-67
2023/05/18 09:02:31;;;;;;;;;;;;;;;22.77;100.00;99440.27;109517;1254;61683;-67
2023/05/18 09:04:58;;;;;;;;;;;;;;;22.92;100.00;99436.20;109547;1254;60483;-65
2023/05/18 09:07:26;;;;;;;;;;;;;;;23.07;100.00;99431.20;109570;1252;74982;-67
2023/05/18 09:09:53;;;;;;;;;;;;;;;23.24;100.00;99431.29;109620;1253;69917;-66
2023/05/18 09:12:21;;;;;;;;;;;;;;;23.39;100.00;99432.14;109574;1253;74452;-70
2023/05/18 09:14:50;;;;;;;;;;;;;;;23.56;100.00;99425.27;109572;1252;61420;-69
2023/05/18 09:17:17;;;;;;;;;;;;;;;23.80;100.00;99420.52;109566;1253;61118;-68
2023/05/18 09:19:44;;;;;;;;;;;;;;;24.00;99.53;99420.33;109543;1252;75073;-65
2023/05/18 09:22:10;;;;;;;;;;;;;;;24.14;98.24;99417.16;109607;1251;66561;-66
2023/05/18 09:24:37;;;;;;;;;;;;;;;24.30;97.69;99420.39;109507;1254;74956;-68
2023/05/18 09:27:05;;;;;;;;;;;;;;;24.46;97.13;99420.65;109510;1253;60887;-68
2023/05/18 09:29:31;;;;;;;;;;;;;;;24.56;95.82;99415.34;109594;1254;61263;-69
2023/05/18 09:32:05;;;;;;;;;;;;;;;24.62;94.46;99417.06;109565;1254;73438;-68
2023/05/18 09:34:39;;;;;;;;;;;;;;;24.63;94.02;99413.60;109462;1254;69627;-67
2023/05/18 09:37:06;;;;;;;;;;;;;;;24.70;93.97;99417.07;109473;1253;71729;-68
2023/05/18 09:39:33;;;;;;;;;;;;;;;24.78;94.70;99417.98;109442;1254;60289;-68
2023/05/18 09:42:01;;;;;;;;;;;;;;;24.84;95.03;99416.78;109481;1254;61104;-68
2023/05/18 09:44:32;;;;;;;;;;;;;;;24.81;94.45;99417.30;109576;1253;76179;-68
2023/05/18 09:46:59;;;;;;;;;;;;;;;24.66;93.23;99419.11;109481;1253;68082;-68
2023/05/18 09:49:27;;;;;;;;;;;;;;;24.46;94.31;99419.25;109550;1252;71323;-68
2023/05/18 09:51:55;;;;;;;;;;;;;;;24.27;94.84;99420.46;109542;1253;62491;-68
2023/05/18 09:54:22;;;;;;;;;;;;;;;24.07;95.91;99421.39;109579;1252;61808;-68
2023/05/18 09:56:50;;;;;;;;;;;;;;;23.91;97.92;99428.95;109491;1254;75701;-68
2023/05/18 09:59:35;;;;;;;;;;;;;;;23.82;99.94;99424.25;109551;1254;69108;-68
2023/05/18 10:02:04;;;;;;;;;;;;;;;23.80;100.00;99422.27;109567;1253;73200;-62
2023/05/18 10:04:38;;;;;;;;;;;;;;;23.73;100.00;99423.89;109524;1252;59566;-65
2023/05/18 10:07:09;;;;;;;;;;;;;;;23.71;100.00;99424.83;109519;1252;62389;-72
2023/05/18 10:09:36;;;;;;;;;;;;;;;23.67;100.00;99424.14;109551;1254;75104;-70
2023/05/18 10:12:08;;;;;;;;;;;;;;;23.58;100.00;99430.57;109425;1252;70033;-71
2023/05/18 10:14:35;;;;;;;;;;;;;;;23.51;100.00;99430.15;109549;1254;74899;-70
2023/05/18 10:17:03;;;;;;;;;;;;;;;23.47;100.00;99428.86;109431;1253;61743;-71
2023/05/18 10:19:42;;;;;;;;;;;;;;;23.49;100.00;99430.95;109499;1254;61171;-70
2023/05/18 10:22:08;;;;;;;;;;;;;;;23.53;100.00;99433.66;109532;1254;76520;-71
2023/05/18 10:24:38;;;;;;;;;;;;;;;23.52;100.00;99431.41;109509;1252;67429;-71
2023/05/18 10:27:06;;;;;;;;;;;;;;;23.52;100.00;99431.25;109514;1253;72712;-71
2023/05/18 10:29:33;;;;;;;;;;;;;;;23.49;100.00;99434.65;109509;1253;60057;-71
2023/05/18 10:32:02;;;;;;;;;;;;;;;23.47;100.00;99436.73;109396;1253;58968;-70
2023/05/18 10:34:52;;;;;;;;;;;;;;;23.48;100.00;99434.15;109508;1253;73354;-69
2023/05/18 10:40:41;;;;;;;;;;;;;;;23.52;100.00;99435.27;109602;1253;71152;-70
2023/05/18 10:43:08;;;;;;;;;;;;;;;23.56;100.00;99437.66;109355;1254;60011;-71
2023/05/18 10:45:35;;;;;;;;;;;;;;;23.62;100.00;99434.41;109539;1252;62082;-71
2023/05/18 10:48:03;;;;;;;;;;;;;;;23.68;100.00;99431.27;109438;1253;75821;-71
2023/05/18 10:50:30;;;;;;;;;;;;;;;23.72;100.00;99432.67;109417;1252;69832;-70
2023/05/18 10:52:58;;;;;;;;;;;;;;;23.82;100.00;99429.90;109578;1253;73403;-71
2023/05/18 10:55:26;;;;;;;;;;;;;;;23.96;100.00;99429.36;109489;1253;62478;-71
2023/05/18 10:58:00;;;;;;;;;;;;;;;24.11;100.00;99426.73;109450;1253;58951;-71
2023/05/18 11:00:27;;;;;;;;;;;;;;;24.20;100.00;99428.30;109491;1253;75959;-71
2023/05/18 11:02:54;;;;;;;;;;;;;;;24.26;100.00;99426.39;109502;1253;69099;-73
2023/05/18 11:08:04;;;;;;;;;;;;;;;24.23;100.00;99424.40;105801;1291;598687;-69
2023/05/18 11:10:42;;;;;;;;;;;;;;;24.16;100.00;99424.90;108262;1267;62375;-70
2023/05/18 11:13:12;;;;;;;;;;;;;;;24.10;100.00;99426.56;108052;1267;60853;-69
2023/05/18 11:16:00;;;;;;;;;;;;;;;23.99;100.00;99425.25;108331;1266;73801;-65
2023/05/18 11:18:35;;;;;;;;;;;;;;;23.95;100.00;99423.21;108084;1266;68319;-65
2023/05/18 11:21:02;;;;;;;;;;;;;;;23.91;100.00;99427.42;105059;1264;174525;-66
2023/05/18 11:23:30;;;;;;;;;;;;;;;23.88;100.00;99429.45;105464;1263;60323;-64
2023/05/18 11:26:03;;;;;;;;;;;;;;;23.84;100.00;99428.66;105533;1257;61655;-63
2023/05/18 11:28:32;;;;;;;;;;;;;;;23.82;100.00;99430.20;106066;1256;71716;-71
2023/05/18 11:30:59;;;;;;;;;;;;;;;23.81;100.00;99431.27;106783;1257;69800;-70
2023/05/18 11:33:26;;;;;;;;;;;;;;;23.82;100.00;99433.09;106690;1257;73147;-72
2023/05/18 11:36:00;;;;;;;;;;;;;;;23.83;100.00;99436.25;106354;1257;61978;-67
2023/05/18 11:38:47;;;;;;;;;;;;;;;23.86;100.00;99433.67;105364;1257;61955;-65
2023/05/18 11:41:30;;;;;;;;;;;;;;;23.85;100.00;99435.50;105325;1257;73142;-68
2023/05/18 11:44:17;;;;;;;;;;;;;;;23.78;100.00;99437.45;105357;1263;70417;-68
2023/05/18 11:47:03;;;;;;;;;;;;;;;23.74;100.00;99441.05;105648;1262;75087;-67
2023/05/18 11:49:46;;;;;;;;;;;;;;;23.77;100.00;99440.65;105422;1257;62135;-65
2023/05/18 11:52:19;;;;;;;;;;;;;;;23.74;100.00;99443.06;105340;1257;61839;-64
2023/05/18 11:54:56;;;;;;;;;;;;;;;23.69;100.00;99441.39;105733;1257;75644;-66
2023/05/18 11:57:23;;;;;;;;;;;;;;;23.59;100.00;99441.98;105638;1256;68861;-65
2023/05/18 11:59:54;;;;;;;;;;;;;;;23.56;100.00;99445.80;105658;1256;72099;-67
2023/05/18 12:02:21;;;;;;;;;;;;;;;23.54;100.00;99451.20;105529;1256;62158;-64
2023/05/18 12:04:49;;;;;;;;;;;;;;;23.49;100.00;99450.49;105582;1258;61224;-67
2023/05/18 12:07:17;;;;;;;;;;;;;;;23.48;100.00;99451.48;105675;1253;75840;-68
2023/05/18 12:09:45;;;;;;;;;;;;;;;23.46;100.00;99451.23;105738;1256;68856;-69
2023/05/18 12:12:15;;;;;;;;;;;;;;;23.42;100.00;99453.36;105690;1254;72055;-70
2023/05/18 12:14:44;;;;;;;;;;;;;;;23.40;100.00;99449.80;105735;1254;63505;-69
2023/05/18 12:17:10;;;;;;;;;;;;;;;23.34;100.00;99450.10;105705;1254;59678;-72
2023/05/18 12:19:40;;;;;;;;;;;;;;;23.20;100.00;99452.19;105684;1257;75862;-69
2023/05/18 12:22:07;;;;;;;;;;;;;;;23.07;100.00;99462.23;105676;1253;67556;-70
2023/05/18 12:24:35;;;;;;;;;;;;;;;22.95;100.00;99465.16;105596;1254;74307;-70
2023/05/18 12:27:03;;;;;;;;;;;;;;;22.72;100.00;99458.06;105700;1253;61189;-69
2023/05/18 12:29:33;;;;;;;;;;;;;;;22.50;100.00;99457.95;105797;1257;59986;-70
2023/05/18 12:32:03;;;;;;;;;;;;;;;22.29;100.00;99460.39;105739;1252;73789;-61
2023/05/18 12:34:30;;;;;;;;;;;;;;;22.13;100.00;99466.58;105695;1257;69090;-68
2023/05/18 12:36:57;;;;;;;;;;;;;;;22.02;100.00;99472.09;105477;1257;74588;-67
2023/05/18 12:39:24;;;;;;;;;;;;;;;21.92;100.00;99470.98;105501;1257;62308;-66
2023/05/18 12:42:06;;;;;;;;;;;;;;;21.83;100.00;99466.18;105563;1257;62836;-66